Time;durP1;ratioP1;P1;durP2;ratioP2;P2;SDS_P1;SDS_P2;PMS_P1;PMS_P2;Temp;Humidity;BMP_temperature;BMP_pressure;BME280_temperature;BME280_humidity;BME280_pressure;Samples;Min_cycle;Max_cycle;Signal;HPM_P1;HPM_P2
2021/12/15 00:00:20;;;;;;;;;;;7.90;99.90;;;;;;5073615;28;20022;-78
2021/12/15 00:02:46;;;;;;;;;;;7.80;99.90;;;;;;5073536;28;19908;-79
2021/12/15 00:05:20;;;;;;;;;;;7.90;99.90;;;;;;5073716;28;20404;-78
2021/12/15 00:07:46;;;;;;;;;;;7.90;99.90;;;;;;5073751;28;19915;-78
2021/12/15 00:10:12;;;;;;;;;;;8.00;99.90;;;;;;5073557;28;20365;-78
2021/12/15 00:12:37;;;;;;;;;;;8.00;99.90;;;;;;5073252;28;20015;-79
2021/12/15 00:15:03;;;;;;;;;;;7.90;99.90;;;;;;5073390;28;19913;-79
2021/12/15 00:17:29;;;;;;;;;;;7.70;99.90;;;;;;5073617;28;19908;-79
2021/12/15 00:19:55;;;;;;;;;;;7.70;99.90;;;;;;5073386;28;19912;-78
2021/12/15 00:22:21;;;;;;;;;;;7.70;99.90;;;;;;5073342;28;19920;-80
2021/12/15 00:24:46;;;;;;;;;;;7.60;99.90;;;;;;5055376;28;19909;-78
2021/12/15 00:27:12;;;;;;;;;;;7.50;99.90;;;;;;5073622;28;19931;-78
2021/12/15 00:29:38;;;;;;;;;;;7.40;99.90;;;;;;5073291;28;19908;-78
2021/12/15 00:32:04;;;;;;;;;;;7.40;99.90;;;;;;5055594;28;19908;-78
2021/12/15 00:34:34;;;;;;;;;;;7.40;99.90;;;;;;5074809;28;19909;-78
2021/12/15 00:37:00;;;;;;;;;;;7.30;99.90;;;;;;5077949;28;19908;-79
2021/12/15 00:39:28;;;;;;;;;;;7.40;99.90;;;;;;5077150;28;19916;-79
2021/12/15 00:41:53;;;;;;;;;;;7.40;99.90;;;;;;5077078;28;19908;-78
2021/12/15 00:44:19;;;;;;;;;;;7.40;99.90;;;;;;5076952;28;20340;-79
2021/12/15 00:46:45;;;;;;;;;;;7.50;99.90;;;;;;5076987;28;20277;-79
2021/12/15 00:49:10;;;;;;;;;;;7.50;99.90;;;;;;5075655;28;19908;-79
2021/12/15 00:51:37;;;;;;;;;;;7.50;99.90;;;;;;5076840;28;20284;-78
2021/12/15 00:54:03;;;;;;;;;;;7.40;99.90;;;;;;5076811;28;19913;-79
2021/12/15 00:56:29;;;;;;;;;;;7.50;99.90;;;;;;5076697;28;19920;-78
2021/12/15 00:58:54;;;;;;;;;;;7.60;99.90;;;;;;5076727;28;20280;-79
2021/12/15 01:01:21;;;;;;;;;;;7.60;99.90;;;;;;5076695;28;19909;-79
2021/12/15 01:03:47;;;;;;;;;;;7.60;99.90;;;;;;5076731;28;19915;-79
2021/12/15 01:06:16;;;;;;;;;;;7.60;99.90;;;;;;5076589;28;19909;-79
2021/12/15 01:08:45;;;;;;;;;;;7.60;99.90;;;;;;5076558;28;20365;-78
2021/12/15 01:11:21;;;;;;;;;;;7.60;99.90;;;;;;5076792;28;19951;-79
2021/12/15 01:19:48;;;;;;;;;;;7.70;99.90;;;;;;5076173;28;19920;-78
2021/12/15 01:22:19;;;;;;;;;;;7.70;99.90;;;;;;5058330;28;19974;-78
2021/12/15 01:24:45;;;;;;;;;;;7.70;99.90;;;;;;5076296;28;20399;-79
2021/12/15 01:27:10;;;;;;;;;;;7.70;99.90;;;;;;5076649;28;19913;-79
2021/12/15 01:29:36;;;;;;;;;;;7.70;99.90;;;;;;5058168;28;19908;-79
2021/12/15 01:32:02;;;;;;;;;;;7.70;99.90;;;;;;5076139;28;20438;-79
2021/12/15 01:34:27;;;;;;;;;;;7.70;99.90;;;;;;5076020;28;19930;-79
2021/12/15 01:36:53;;;;;;;;;;;7.80;99.90;;;;;;5076045;28;19908;-79
2021/12/15 01:39:19;;;;;;;;;;;7.80;99.90;;;;;;5075893;28;19938;-78
2021/12/15 01:41:44;;;;;;;;;;;7.90;99.90;;;;;;5075936;28;19995;-79
2021/12/15 01:49:36;;;;;;;;;;;7.90;99.90;;;;;;5075607;28;19909;-79
2021/12/15 01:52:13;;;;;;;;;;;7.90;99.90;;;;;;5075805;28;19908;-79
2021/12/15 01:54:40;;;;;;;;;;;7.90;99.90;;;;;;5057403;28;19912;-78
2021/12/15 01:57:07;;;;;;;;;;;7.90;99.90;;;;;;5057696;28;19931;-78
2021/12/15 01:59:33;;;;;;;;;;;8.00;99.90;;;;;;5075714;28;19916;-78
2021/12/15 02:01:59;;;;;;;;;;;8.00;99.90;;;;;;5075622;28;19916;-79
2021/12/15 02:04:25;;;;;;;;;;;8.00;99.90;;;;;;5075526;28;19908;-79
2021/12/15 02:06:50;;;;;;;;;;;7.90;99.90;;;;;;5075467;28;20065;-79
2021/12/15 02:09:26;;;;;;;;;;;8.00;99.90;;;;;;5075460;28;19908;-79
2021/12/15 02:11:52;;;;;;;;;;;8.00;99.90;;;;;;5075193;28;19937;-79
2021/12/15 02:14:17;;;;;;;;;;;8.00;99.90;;;;;;5075711;28;19909;-79
2021/12/15 02:16:43;;;;;;;;;;;8.10;99.90;;;;;;5057274;28;20416;-79
2021/12/15 02:19:10;;;;;;;;;;;8.20;99.90;;;;;;5075317;28;19912;-79
2021/12/15 02:21:36;;;;;;;;;;;8.10;99.90;;;;;;5075187;28;20361;-79
2021/12/15 02:24:02;;;;;;;;;;;8.10;99.90;;;;;;5075138;28;19915;-79
2021/12/15 02:26:33;;;;;;;;;;;8.10;99.90;;;;;;5075117;28;19915;-79
2021/12/15 02:28:59;;;;;;;;;;;8.10;99.90;;;;;;5075234;28;19916;-78
2021/12/15 02:34:18;;;;;;;;;;;8.10;99.90;;;;;;5075214;28;19954;-79
2021/12/15 02:39:28;;;;;;;;;;;8.10;99.90;;;;;;5074608;28;19915;-79
2021/12/15 02:41:54;;;;;;;;;;;8.20;99.90;;;;;;5074802;28;19995;-79
2021/12/15 02:44:20;;;;;;;;;;;8.20;99.90;;;;;;5056810;28;19908;-78
2021/12/15 02:46:46;;;;;;;;;;;8.10;99.90;;;;;;5074752;28;19951;-79
2021/12/15 02:49:13;;;;;;;;;;;8.10;99.90;;;;;;5074919;28;19947;-79
2021/12/15 02:51:40;;;;;;;;;;;8.10;99.90;;;;;;5074551;28;19915;-79
2021/12/15 02:54:07;;;;;;;;;;;8.10;99.90;;;;;;5073203;28;19909;-79
2021/12/15 02:56:33;;;;;;;;;;;8.10;99.90;;;;;;5074029;28;19912;-78
2021/12/15 02:59:03;;;;;;;;;;;8.10;99.90;;;;;;5074414;28;19913;-79
2021/12/15 03:01:54;;;;;;;;;;;8.00;99.90;;;;;;5074386;28;20323;-79
2021/12/15 03:04:35;;;;;;;;;;;8.00;99.90;;;;;;5074633;28;20369;-79
2021/12/15 03:07:24;;;;;;;;;;;8.10;99.90;;;;;;5056148;28;19912;-78
2021/12/15 03:17:43;;;;;;;;;;;8.00;99.90;;;;;;5074079;28;19908;-79
2021/12/15 03:20:10;;;;;;;;;;;8.00;99.90;;;;;;5074103;28;19909;-79
2021/12/15 03:22:36;;;;;;;;;;;8.00;99.90;;;;;;5074012;28;20383;-78
2021/12/15 03:25:02;;;;;;;;;;;8.00;99.90;;;;;;5074139;28;19916;-79
2021/12/15 03:33:27;;;;;;;;;;;8.10;99.90;;;;;;5056021;28;19936;-79
2021/12/15 03:36:01;;;;;;;;;;;8.00;99.90;;;;;;5073726;28;19957;-79
2021/12/15 03:38:28;;;;;;;;;;;8.00;99.90;;;;;;5074451;28;19944;-79
2021/12/15 03:40:54;;;;;;;;;;;8.00;99.90;;;;;;5072453;28;19908;-79
2021/12/15 03:43:21;;;;;;;;;;;8.00;99.90;;;;;;5073853;28;19908;-79
2021/12/15 03:45:53;;;;;;;;;;;8.10;99.90;;;;;;5073818;28;20000;-79
2021/12/15 03:48:20;;;;;;;;;;;8.00;99.90;;;;;;5055696;28;19943;-78
2021/12/15 03:50:46;;;;;;;;;;;8.00;99.90;;;;;;5074001;28;19951;-79
2021/12/15 03:53:12;;;;;;;;;;;8.00;99.90;;;;;;5073743;28;19989;-78
2021/12/15 03:55:38;;;;;;;;;;;8.00;99.90;;;;;;5073624;28;20383;-79
2021/12/15 03:58:08;;;;;;;;;;;7.90;99.90;;;;;;5073841;28;19995;-79
2021/12/15 04:00:35;;;;;;;;;;;7.90;99.90;;;;;;5055597;28;19909;-79
2021/12/15 04:03:01;;;;;;;;;;;7.90;99.90;;;;;;5055616;28;19909;-79
2021/12/15 04:05:27;;;;;;;;;;;7.90;99.90;;;;;;5073674;28;20428;-78
2021/12/15 04:07:52;;;;;;;;;;;7.90;99.90;;;;;;5073550;28;19944;-79
2021/12/15 04:10:21;;;;;;;;;;;7.90;99.90;;;;;;5076592;28;19998;-78
2021/12/15 04:12:47;;;;;;;;;;;8.00;99.90;;;;;;5076196;28;20373;-78
2021/12/15 04:17:49;;;;;;;;;;;7.90;99.90;;;;;;5078044;28;19908;-78
2021/12/15 04:20:17;;;;;;;;;;;8.00;99.90;;;;;;5077502;28;20445;-79
2021/12/15 04:22:43;;;;;;;;;;;8.00;99.90;;;;;;5077475;28;19962;-79
2021/12/15 04:25:10;;;;;;;;;;;8.00;99.90;;;;;;5077535;28;20322;-79
2021/12/15 04:27:36;;;;;;;;;;;8.00;99.90;;;;;;5077444;28;19958;-79
2021/12/15 04:30:04;;;;;;;;;;;8.00;99.90;;;;;;5077302;28;19946;-79
2021/12/15 04:32:48;;;;;;;;;;;8.00;99.90;;;;;;5059252;28;20369;-79
2021/12/15 04:35:14;;;;;;;;;;;8.00;99.90;;;;;;5058892;28;19913;-79
2021/12/15 04:37:41;;;;;;;;;;;8.00;99.90;;;;;;5077160;28;19916;-79
2021/12/15 04:40:08;;;;;;;;;;;8.00;99.90;;;;;;5077099;28;19999;-79
2021/12/15 04:42:37;;;;;;;;;;;8.00;99.90;;;;;;5077077;28;19909;-79
2021/12/15 04:45:03;;;;;;;;;;;8.00;99.90;;;;;;5076981;28;20361;-78
2021/12/15 04:47:28;;;;;;;;;;;7.90;99.90;;;;;;5077014;28;19999;-79
2021/12/15 04:49:55;;;;;;;;;;;7.90;99.90;;;;;;5077498;28;20379;-79
2021/12/15 04:52:22;;;;;;;;;;;7.90;99.90;;;;;;5076871;28;20010;-79
2021/12/15 04:54:48;;;;;;;;;;;7.90;99.90;;;;;;5076936;28;19912;-79
2021/12/15 04:57:15;;;;;;;;;;;7.90;99.90;;;;;;5076904;28;20000;-79
2021/12/15 04:59:41;;;;;;;;;;;7.90;99.90;;;;;;5076763;28;19916;-79
2021/12/15 05:02:07;;;;;;;;;;;7.90;99.90;;;;;;5076760;28;19915;-79
2021/12/15 05:04:33;;;;;;;;;;;7.90;99.90;;;;;;5076649;28;20008;-79
2021/12/15 05:06:58;;;;;;;;;;;7.90;99.90;;;;;;5076755;28;19955;-79
2021/12/15 05:09:24;;;;;;;;;;;7.90;99.90;;;;;;5058617;28;19948;-79
2021/12/15 05:11:50;;;;;;;;;;;7.90;99.90;;;;;;5075992;28;20003;-79
2021/12/15 05:14:17;;;;;;;;;;;7.90;99.90;;;;;;5076701;28;19909;-78
2021/12/15 05:16:43;;;;;;;;;;;7.90;99.90;;;;;;5076402;28;19912;-79
2021/12/15 05:19:08;;;;;;;;;;;7.90;99.90;;;;;;5058453;28;20003;-79
2021/12/15 05:21:34;;;;;;;;;;;7.80;99.90;;;;;;5075850;28;20392;-79
2021/12/15 05:24:08;;;;;;;;;;;7.80;99.90;;;;;;5076286;28;19909;-79
2021/12/15 05:26:34;;;;;;;;;;;7.80;99.90;;;;;;5076384;28;19916;-79
2021/12/15 05:29:00;;;;;;;;;;;7.80;99.90;;;;;;5076352;28;19908;-79
2021/12/15 05:31:25;;;;;;;;;;;7.80;99.90;;;;;;5076192;28;19962;-79
2021/12/15 05:33:51;;;;;;;;;;;7.70;99.90;;;;;;5076491;28;20015;-79
2021/12/15 05:36:17;;;;;;;;;;;7.80;99.90;;;;;;5076036;28;20284;-79
2021/12/15 05:38:42;;;;;;;;;;;7.70;99.90;;;;;;5058110;28;19908;-79
2021/12/15 05:41:08;;;;;;;;;;;7.80;99.90;;;;;;5076083;28;19958;-79
2021/12/15 05:43:33;;;;;;;;;;;7.80;99.90;;;;;;5076102;28;19915;-79
2021/12/15 05:45:59;;;;;;;;;;;7.80;99.90;;;;;;5076057;28;19909;-79
2021/12/15 05:48:25;;;;;;;;;;;7.80;99.90;;;;;;5076171;28;19950;-79
2021/12/15 05:50:51;;;;;;;;;;;7.80;99.90;;;;;;5057817;28;19913;-78
2021/12/15 05:53:17;;;;;;;;;;;7.90;99.90;;;;;;5075773;28;19920;-79
2021/12/15 05:55:44;;;;;;;;;;;7.90;99.90;;;;;;5075634;28;19916;-79
2021/12/15 05:58:09;;;;;;;;;;;7.90;99.90;;;;;;5075818;28;19908;-79
2021/12/15 06:00:36;;;;;;;;;;;8.00;99.90;;;;;;5057649;28;19939;-79
2021/12/15 06:03:03;;;;;;;;;;;8.00;99.90;;;;;;5075562;28;19908;-78
2021/12/15 06:05:29;;;;;;;;;;;7.90;99.90;;;;;;5075508;28;19915;-79
2021/12/15 06:07:55;;;;;;;;;;;7.90;99.90;;;;;;5075868;28;20275;-79
2021/12/15 06:10:22;;;;;;;;;;;7.80;99.90;;;;;;5040919;28;20273;-78
2021/12/15 06:12:50;;;;;;;;;;;7.80;99.90;;;;;;5075274;28;19920;-79
2021/12/15 06:15:21;;;;;;;;;;;7.80;99.90;;;;;;5075223;28;19912;-78
2021/12/15 06:17:51;;;;;;;;;;;7.70;99.90;;;;;;5057146;28;19908;-79
2021/12/15 06:20:17;;;;;;;;;;;7.70;99.90;;;;;;5075286;28;20369;-78
2021/12/15 06:22:45;;;;;;;;;;;7.70;99.90;;;;;;5075244;28;19916;-79
2021/12/15 06:25:13;;;;;;;;;;;7.70;99.90;;;;;;5075028;28;19916;-79
2021/12/15 06:27:42;;;;;;;;;;;7.70;99.90;;;;;;5075121;28;19909;-78
2021/12/15 06:30:08;;;;;;;;;;;7.70;99.90;;;;;;5075416;28;19908;-79
2021/12/15 06:32:34;;;;;;;;;;;7.80;99.90;;;;;;5056156;28;19915;-79
2021/12/15 06:35:00;;;;;;;;;;;7.80;99.90;;;;;;5074910;28;20279;-79
2021/12/15 06:37:26;;;;;;;;;;;7.80;99.90;;;;;;5074953;28;19909;-78
2021/12/15 06:39:51;;;;;;;;;;;7.70;99.90;;;;;;5056881;28;19919;-79
2021/12/15 06:42:17;;;;;;;;;;;7.70;99.90;;;;;;5074861;28;19955;-79
2021/12/15 06:44:42;;;;;;;;;;;7.70;99.90;;;;;;5074731;28;20369;-80
2021/12/15 07:00:27;;;;;;;;;;;7.60;99.90;;;;;;5074449;28;19952;-79
2021/12/15 07:02:53;;;;;;;;;;;7.60;99.90;;;;;;5056488;28;19912;-79
2021/12/15 07:05:19;;;;;;;;;;;7.60;99.90;;;;;;5056404;28;19908;-79
2021/12/15 07:07:45;;;;;;;;;;;7.70;99.90;;;;;;5056330;28;19912;-79
2021/12/15 07:10:11;;;;;;;;;;;7.70;99.90;;;;;;5074317;28;19916;-79
2021/12/15 07:12:38;;;;;;;;;;;7.70;99.90;;;;;;5074219;28;19955;-79
2021/12/15 07:15:04;;;;;;;;;;;7.70;99.90;;;;;;5074128;28;19917;-79
2021/12/15 07:17:30;;;;;;;;;;;7.70;99.90;;;;;;5074108;28;20352;-79
2021/12/15 07:24:54;;;;;;;;;;;7.70;99.90;;;;;;5074098;28;20388;-78
2021/12/15 07:27:19;;;;;;;;;;;7.70;99.90;;;;;;5073956;28;19908;-79
2021/12/15 07:29:45;;;;;;;;;;;7.70;99.90;;;;;;5074032;28;19908;-78
2021/12/15 07:32:10;;;;;;;;;;;7.70;99.90;;;;;;5055976;28;20023;-79
2021/12/15 07:34:36;;;;;;;;;;;7.60;99.90;;;;;;5074140;28;20345;-79
2021/12/15 07:37:02;;;;;;;;;;;7.50;99.90;;;;;;5073825;28;19908;-79
2021/12/15 07:39:28;;;;;;;;;;;7.50;99.90;;;;;;5055890;28;20433;-78
2021/12/15 07:42:06;;;;;;;;;;;7.40;99.90;;;;;;5055850;28;19999;-79
2021/12/15 07:44:32;;;;;;;;;;;7.50;99.90;;;;;;5073805;28;20003;-79
2021/12/15 07:46:57;;;;;;;;;;;7.50;99.90;;;;;;5073710;28;19909;-79
2021/12/15 07:49:24;;;;;;;;;;;7.50;99.90;;;;;;5055698;28;19915;-79
2021/12/15 07:51:58;;;;;;;;;;;7.50;99.90;;;;;;5073790;28;19913;-79
2021/12/15 07:54:24;;;;;;;;;;;7.60;99.90;;;;;;5055387;28;19915;-79
2021/12/15 07:56:50;;;;;;;;;;;7.60;99.90;;;;;;5073568;28;19912;-80
2021/12/15 07:59:16;;;;;;;;;;;7.50;99.90;;;;;;5073660;28;19909;-79
2021/12/15 08:01:42;;;;;;;;;;;7.60;99.90;;;;;;5055484;28;19909;-79
2021/12/15 08:04:08;;;;;;;;;;;7.60;99.90;;;;;;5073637;28;19909;-79
2021/12/15 08:06:34;;;;;;;;;;;7.60;99.90;;;;;;5073751;28;19965;-79
2021/12/15 08:09:00;;;;;;;;;;;7.60;99.90;;;;;;5073543;28;19962;-79
2021/12/15 08:11:25;;;;;;;;;;;7.70;99.90;;;;;;5055491;28;19908;-78
2021/12/15 08:13:51;;;;;;;;;;;7.80;99.90;;;;;;5068388;28;19928;-79
2021/12/15 08:16:19;;;;;;;;;;;7.80;99.90;;;;;;5053366;28;19912;-79
2021/12/15 08:18:45;;;;;;;;;;;7.70;99.90;;;;;;5053384;28;20369;-79
2021/12/15 08:21:10;;;;;;;;;;;7.80;99.90;;;;;;5053401;28;19916;-80
2021/12/15 08:23:36;;;;;;;;;;;7.80;99.90;;;;;;5053531;28;19944;-79
2021/12/15 08:26:03;;;;;;;;;;;7.80;99.90;;;;;;5053335;28;19932;-78
2021/12/15 08:28:28;;;;;;;;;;;7.70;99.90;;;;;;5052035;28;19941;-78
2021/12/15 08:30:54;;;;;;;;;;;7.60;99.90;;;;;;5053470;28;20377;-79
2021/12/15 08:33:21;;;;;;;;;;;7.60;99.90;;;;;;5051975;28;19947;-79
2021/12/15 08:35:48;;;;;;;;;;;7.70;99.90;;;;;;5053195;28;19920;-79
2021/12/15 08:38:15;;;;;;;;;;;7.70;99.90;;;;;;5051951;28;19932;-79
2021/12/15 08:40:41;;;;;;;;;;;7.70;99.90;;;;;;5068516;28;20330;-79
2021/12/15 08:43:07;;;;;;;;;;;7.70;99.90;;;;;;5053156;28;19940;-78
2021/12/15 08:45:34;;;;;;;;;;;7.70;99.90;;;;;;5053124;28;19916;-79
2021/12/15 08:47:59;;;;;;;;;;;7.70;99.90;;;;;;5053515;28;19916;-79
2021/12/15 08:50:27;;;;;;;;;;;7.70;99.90;;;;;;5053105;28;19908;-79
2021/12/15 08:52:52;;;;;;;;;;;7.80;99.90;;;;;;5053090;28;19913;-79
2021/12/15 08:55:18;;;;;;;;;;;7.70;99.90;;;;;;5054284;28;19913;-79
2021/12/15 08:57:48;;;;;;;;;;;7.70;99.90;;;;;;5056839;28;19951;-79
2021/12/15 09:00:16;;;;;;;;;;;7.60;99.90;;;;;;5057036;28;20000;-79
2021/12/15 09:02:41;;;;;;;;;;;7.60;99.90;;;;;;5056874;28;19913;-79
2021/12/15 09:05:07;;;;;;;;;;;7.60;99.90;;;;;;5056714;28;19909;-79
2021/12/15 09:07:33;;;;;;;;;;;7.60;99.90;;;;;;5056650;28;20434;-78
2021/12/15 09:09:58;;;;;;;;;;;7.70;99.90;;;;;;5056632;28;19999;-79
2021/12/15 09:12:24;;;;;;;;;;;7.70;99.90;;;;;;5063451;28;19920;-78
2021/12/15 09:14:50;;;;;;;;;;;7.60;99.90;;;;;;5076579;28;19908;-79
2021/12/15 09:17:15;;;;;;;;;;;7.70;99.90;;;;;;5076474;28;19909;-79
2021/12/15 09:19:41;;;;;;;;;;;7.90;99.90;;;;;;5076510;28;20019;-79
2021/12/15 09:22:07;;;;;;;;;;;7.90;99.90;;;;;;5076387;28;19915;-78
2021/12/15 09:24:32;;;;;;;;;;;7.90;99.90;;;;;;5076400;28;19973;-79
2021/12/15 09:26:58;;;;;;;;;;;7.90;99.90;;;;;;5076325;28;20445;-78
2021/12/15 09:29:24;;;;;;;;;;;7.80;99.90;;;;;;5076251;28;19908;-78
2021/12/15 09:31:51;;;;;;;;;;;7.70;99.90;;;;;;5076205;28;19909;-79
2021/12/15 09:34:18;;;;;;;;;;;7.80;99.90;;;;;;5076392;28;20352;-78
2021/12/15 09:36:50;;;;;;;;;;;7.80;99.90;;;;;;5076097;28;19913;-79
2021/12/15 09:39:18;;;;;;;;;;;7.80;99.90;;;;;;5075999;28;19915;-79
2021/12/15 09:41:44;;;;;;;;;;;7.80;99.90;;;;;;5076075;28;20383;-79
2021/12/15 09:44:13;;;;;;;;;;;7.80;99.90;;;;;;5075997;28;20369;-79
2021/12/15 09:57:46;;;;;;;;;;;7.70;99.90;;;;;;5075814;28;19915;-79
2021/12/15 10:03:01;;;;;;;;;;;7.80;99.90;;;;;;5075350;28;19916;-79
2021/12/15 10:10:47;;;;;;;;;;;7.80;99.90;;;;;;5075794;28;19997;-79
2021/12/15 10:18:49;;;;;;;;;;;7.90;99.90;;;;;;5075298;28;19915;-79
2021/12/15 10:21:26;;;;;;;;;;;7.90;99.90;;;;;;5057051;28;20395;-78
2021/12/15 10:23:52;;;;;;;;;;;7.90;99.90;;;;;;5075263;28;20006;-79
2021/12/15 10:26:19;;;;;;;;;;;7.90;99.90;;;;;;5075402;28;19944;-79
2021/12/15 10:28:49;;;;;;;;;;;8.00;99.90;;;;;;5075099;28;19916;-79
2021/12/15 10:31:16;;;;;;;;;;;8.10;99.90;;;;;;5057103;28;19912;-79
2021/12/15 10:33:43;;;;;;;;;;;8.20;99.90;;;;;;5057026;28;20274;-79
2021/12/15 10:36:09;;;;;;;;;;;8.20;99.90;;;;;;5056949;28;20364;-79
2021/12/15 10:38:44;;;;;;;;;;;8.20;99.90;;;;;;5074882;28;19909;-78
2021/12/15 10:41:12;;;;;;;;;;;8.10;99.90;;;;;;5073465;28;19916;-79
2021/12/15 10:43:43;;;;;;;;;;;8.10;99.90;;;;;;5075315;28;20414;-79
2021/12/15 10:46:09;;;;;;;;;;;8.10;99.90;;;;;;5074904;28;19909;-79
2021/12/15 10:48:41;;;;;;;;;;;8.20;99.90;;;;;;5074680;28;19991;-79
2021/12/15 10:51:21;;;;;;;;;;;8.20;99.90;;;;;;5074992;28;19908;-78
2021/12/15 10:53:47;;;;;;;;;;;8.20;99.90;;;;;;5074572;28;19908;-79
2021/12/15 10:56:14;;;;;;;;;;;8.20;99.90;;;;;;5074503;28;20011;-79
2021/12/15 10:58:42;;;;;;;;;;;8.20;99.90;;;;;;5056547;28;19987;-79
2021/12/15 11:01:28;;;;;;;;;;;8.20;99.90;;;;;;5074543;28;19915;-79
2021/12/15 11:03:53;;;;;;;;;;;8.20;99.90;;;;;;5073682;28;20020;-78
2021/12/15 11:06:20;;;;;;;;;;;8.30;99.90;;;;;;5074338;28;20377;-79
2021/12/15 11:08:46;;;;;;;;;;;8.40;99.90;;;;;;5056366;28;19908;-79
2021/12/15 11:11:28;;;;;;;;;;;8.40;99.90;;;;;;5074375;28;19999;-79
2021/12/15 11:13:54;;;;;;;;;;;8.30;99.90;;;;;;5073815;28;19921;-79
2021/12/15 11:16:27;;;;;;;;;;;8.30;99.90;;;;;;5074430;28;20433;-79
2021/12/15 11:18:53;;;;;;;;;;;8.40;99.90;;;;;;5055852;28;20393;-78
2021/12/15 11:21:20;;;;;;;;;;;8.30;99.90;;;;;;5074178;28;19965;-79
2021/12/15 11:23:46;;;;;;;;;;;8.20;99.90;;;;;;5074292;28;20015;-79
2021/12/15 11:26:15;;;;;;;;;;;8.20;99.90;;;;;;5056035;28;20429;-79
2021/12/15 11:28:42;;;;;;;;;;;8.30;99.90;;;;;;5074267;28;19915;-79
2021/12/15 11:31:08;;;;;;;;;;;8.30;99.90;;;;;;5073988;28;20279;-79
2021/12/15 11:33:41;;;;;;;;;;;8.20;99.90;;;;;;5073916;28;19916;-79
2021/12/15 11:36:12;;;;;;;;;;;8.30;99.90;;;;;;5055592;28;20292;-78
2021/12/15 11:38:43;;;;;;;;;;;8.30;99.90;;;;;;5073933;28;19908;-78
2021/12/15 11:41:08;;;;;;;;;;;8.20;99.90;;;;;;5055991;28;19909;-79
2021/12/15 11:43:36;;;;;;;;;;;8.10;99.90;;;;;;5074059;28;20291;-79
2021/12/15 11:46:04;;;;;;;;;;;8.20;99.90;;;;;;5073964;28;20269;-78
2021/12/15 11:48:32;;;;;;;;;;;8.20;99.90;;;;;;5073771;28;19932;-79
2021/12/15 11:51:00;;;;;;;;;;;8.30;99.90;;;;;;5055972;28;20017;-79
2021/12/15 11:53:55;;;;;;;;;;;8.30;99.90;;;;;;5055702;28;20323;-78
2021/12/15 11:56:34;;;;;;;;;;;8.40;99.90;;;;;;5055924;28;20269;-80
2021/12/15 11:59:02;;;;;;;;;;;8.50;99.90;;;;;;5055548;28;19908;-79
2021/12/15 12:01:48;;;;;;;;;;;8.50;99.90;;;;;;5073831;28;19908;-78
2021/12/15 12:04:22;;;;;;;;;;;8.50;99.90;;;;;;5073575;28;19974;-79
2021/12/15 12:06:50;;;;;;;;;;;8.50;99.90;;;;;;5055368;28;19909;-79
2021/12/15 12:09:18;;;;;;;;;;;8.60;99.90;;;;;;5073583;28;19940;-79
2021/12/15 12:11:48;;;;;;;;;;;8.60;99.90;;;;;;5073341;28;19916;-79
2021/12/15 12:14:26;;;;;;;;;;;8.60;99.90;;;;;;5073876;28;20365;-80
2021/12/15 12:16:52;;;;;;;;;;;8.60;99.90;;;;;;5073434;28;20289;-79
2021/12/15 12:19:18;;;;;;;;;;;8.60;99.90;;;;;;5073468;28;20470;-79
2021/12/15 12:21:44;;;;;;;;;;;8.60;99.90;;;;;;5073608;28;19912;-79
2021/12/15 12:24:16;;;;;;;;;;;8.60;99.90;;;;;;5073588;28;19908;-79
2021/12/15 12:26:42;;;;;;;;;;;8.70;99.90;;;;;;5055092;28;20397;-79
2021/12/15 12:29:08;;;;;;;;;;;8.70;99.90;;;;;;5073363;28;19913;-79
2021/12/15 12:31:34;;;;;;;;;;;8.70;99.90;;;;;;5076743;28;19960;-78
2021/12/15 12:34:00;;;;;;;;;;;8.70;99.90;;;;;;5077327;28;20391;-79
2021/12/15 12:36:28;;;;;;;;;;;8.60;99.90;;;;;;5077184;28;19913;-79
2021/12/15 12:38:56;;;;;;;;;;;8.70;99.90;;;;;;5077134;28;19908;-78
2021/12/15 12:41:32;;;;;;;;;;;8.70;99.90;;;;;;5077057;28;19920;-79
2021/12/15 12:43:59;;;;;;;;;;;8.70;99.90;;;;;;5077299;28;19908;-79
2021/12/15 12:46:43;;;;;;;;;;;8.70;99.90;;;;;;5077055;28;19994;-79
2021/12/15 13:00:38;;;;;;;;;;;8.70;99.90;;;;;;5076971;28;19959;-79
2021/12/15 13:03:11;;;;;;;;;;;8.70;99.90;;;;;;5076810;28;19908;-79
2021/12/15 13:05:39;;;;;;;;;;;8.70;99.90;;;;;;5076779;28;19908;-79
2021/12/15 13:08:10;;;;;;;;;;;8.80;99.90;;;;;;5077150;28;20426;-79
2021/12/15 13:10:50;;;;;;;;;;;8.70;99.90;;;;;;5076610;28;20347;-79
2021/12/15 13:13:17;;;;;;;;;;;8.70;99.90;;;;;;5076545;28;19995;-79
2021/12/15 13:15:50;;;;;;;;;;;8.70;99.90;;;;;;5076438;28;19912;-79
2021/12/15 13:18:17;;;;;;;;;;;8.60;99.90;;;;;;5076534;28;19908;-79
2021/12/15 13:20:52;;;;;;;;;;;8.60;99.90;;;;;;5076782;28;19935;-79
2021/12/15 13:23:33;;;;;;;;;;;8.70;99.90;;;;;;5076684;28;19909;-79
2021/12/15 13:31:12;;;;;;;;;;;8.70;99.90;;;;;;5076563;28;19944;-79
2021/12/15 13:33:38;;;;;;;;;;;8.70;99.90;;;;;;5076325;28;20430;-79
2021/12/15 13:36:04;;;;;;;;;;;8.70;99.90;;;;;;5076141;28;19916;-78
2021/12/15 13:38:38;;;;;;;;;;;8.70;99.90;;;;;;5076121;28;19915;-79
2021/12/15 13:41:10;;;;;;;;;;;8.60;99.90;;;;;;5075842;28;19931;-79
2021/12/15 13:43:37;;;;;;;;;;;8.60;99.90;;;;;;5058040;28;19908;-79
2021/12/15 13:46:04;;;;;;;;;;;8.60;99.90;;;;;;5075964;28;20430;-79
2021/12/15 13:48:48;;;;;;;;;;;8.60;99.90;;;;;;5076207;28;19909;-79
2021/12/15 13:51:14;;;;;;;;;;;8.60;99.90;;;;;;5075896;28;20365;-79
2021/12/15 13:53:39;;;;;;;;;;;8.80;99.90;;;;;;5057862;28;19923;-79
2021/12/15 13:56:05;;;;;;;;;;;8.60;99.90;;;;;;5074447;28;19913;-79
2021/12/15 13:58:31;;;;;;;;;;;8.70;99.90;;;;;;5075742;28;20373;-79
2021/12/15 14:01:02;;;;;;;;;;;8.60;99.90;;;;;;5075751;28;19908;-79
2021/12/15 14:03:39;;;;;;;;;;;8.70;99.90;;;;;;5075831;28;19915;-79
2021/12/15 14:06:04;;;;;;;;;;;8.60;99.90;;;;;;5076223;28;20356;-78
2021/12/15 14:08:59;;;;;;;;;;;8.60;99.90;;;;;;5075571;28;19915;-79
2021/12/15 14:11:29;;;;;;;;;;;8.60;99.90;;;;;;5047895;28;19908;-79
2021/12/15 14:13:58;;;;;;;;;;;8.50;99.90;;;;;;5075026;28;19966;-79
2021/12/15 14:16:38;;;;;;;;;;;8.60;99.90;;;;;;5075551;28;20280;-79
2021/12/15 14:19:06;;;;;;;;;;;8.50;99.90;;;;;;5075537;28;20361;-79
2021/12/15 14:21:32;;;;;;;;;;;8.50;99.90;;;;;;5075554;28;19915;-79
2021/12/15 14:23:58;;;;;;;;;;;8.60;99.90;;;;;;5075273;28;19909;-79
2021/12/15 14:26:26;;;;;;;;;;;8.50;99.90;;;;;;5057201;28;19909;-79
2021/12/15 14:28:54;;;;;;;;;;;8.50;99.90;;;;;;5075141;28;19912;-79
2021/12/15 14:31:23;;;;;;;;;;;8.40;99.90;;;;;;5075361;28;20377;-79
2021/12/15 14:33:51;;;;;;;;;;;8.40;99.90;;;;;;5075120;28;19908;-79
2021/12/15 14:36:18;;;;;;;;;;;8.40;99.90;;;;;;5074902;28;19912;-79
2021/12/15 14:38:48;;;;;;;;;;;8.40;99.90;;;;;;5075135;28;19916;-79
2021/12/15 14:41:16;;;;;;;;;;;8.40;99.90;;;;;;5074786;28;20373;-79
2021/12/15 14:43:42;;;;;;;;;;;8.40;99.90;;;;;;5074940;28;19918;-79
2021/12/15 14:46:15;;;;;;;;;;;8.30;99.90;;;;;;5075034;28;19908;-79
2021/12/15 14:48:41;;;;;;;;;;;8.30;99.90;;;;;;5075093;28;20369;-78
2021/12/15 14:51:07;;;;;;;;;;;8.20;99.90;;;;;;5074724;28;19930;-79
2021/12/15 14:53:41;;;;;;;;;;;8.20;99.90;;;;;;5055983;28;19995;-79
2021/12/15 14:56:07;;;;;;;;;;;8.20;99.90;;;;;;5074485;28;19916;-78
2021/12/15 14:58:33;;;;;;;;;;;8.30;99.90;;;;;;5074675;28;19984;-78
2021/12/15 15:00:59;;;;;;;;;;;8.30;99.90;;;;;;5074505;28;19908;-78
2021/12/15 15:03:25;;;;;;;;;;;8.30;99.90;;;;;;5074445;28;19909;-79
2021/12/15 15:05:51;;;;;;;;;;;8.30;99.90;;;;;;5085683;28;19998;-79
2021/12/15 15:08:22;;;;;;;;;;;8.30;99.90;;;;;;5094085;28;20376;-79
2021/12/15 15:10:48;;;;;;;;;;;8.30;99.90;;;;;;5094002;28;19944;-79
2021/12/15 15:13:19;;;;;;;;;;;8.30;99.90;;;;;;5093929;28;19920;-79
2021/12/15 15:15:46;;;;;;;;;;;8.20;99.90;;;;;;5092482;28;19943;-79
2021/12/15 15:18:26;;;;;;;;;;;8.30;99.90;;;;;;5074402;28;20372;-78
2021/12/15 15:21:03;;;;;;;;;;;8.30;99.90;;;;;;5075652;28;19913;-79
2021/12/15 15:23:35;;;;;;;;;;;8.20;99.90;;;;;;5094072;28;20012;-79
2021/12/15 15:26:01;;;;;;;;;;;8.10;99.90;;;;;;5093604;28;19915;-79
2021/12/15 15:28:29;;;;;;;;;;;8.00;99.90;;;;;;5075566;28;20299;-78
2021/12/15 15:30:56;;;;;;;;;;;8.00;99.90;;;;;;5093942;28;19966;-79
2021/12/15 15:33:24;;;;;;;;;;;8.00;99.90;;;;;;5093410;28;20011;-79
2021/12/15 15:35:52;;;;;;;;;;;8.00;99.90;;;;;;5065939;28;19919;-78
2021/12/15 15:38:20;;;;;;;;;;;8.00;99.90;;;;;;5093570;28;20426;-79
2021/12/15 15:40:47;;;;;;;;;;;8.00;99.90;;;;;;5093705;28;19931;-79
2021/12/15 15:43:28;;;;;;;;;;;8.00;99.90;;;;;;5093629;28;20361;-79
2021/12/15 15:45:54;;;;;;;;;;;8.00;99.90;;;;;;5073146;28;20372;-79
2021/12/15 15:48:22;;;;;;;;;;;7.90;99.90;;;;;;5073413;28;19909;-79
2021/12/15 15:50:52;;;;;;;;;;;7.90;99.90;;;;;;5056075;28;20284;-78
2021/12/15 15:53:17;;;;;;;;;;;7.90;99.90;;;;;;5093544;28;19988;-79
2021/12/15 15:55:44;;;;;;;;;;;7.90;99.90;;;;;;5085057;28;19955;-79
2021/12/15 15:58:10;;;;;;;;;;;7.90;99.90;;;;;;5093523;28;19915;-79
2021/12/15 16:00:44;;;;;;;;;;;7.90;99.90;;;;;;5093442;28;19908;-79
2021/12/15 16:03:15;;;;;;;;;;;7.90;99.90;;;;;;5093274;28;20001;-79
2021/12/15 16:05:41;;;;;;;;;;;7.80;99.90;;;;;;5092852;28;20340;-79
2021/12/15 16:08:07;;;;;;;;;;;7.80;99.90;;;;;;5074984;28;20001;-78